sensor_id;sensor_type;location;lat;lon;timestamp;temperature;humidity
42141;DHT22;27809;51.864;5.646;2023-07-20T00:01:13;15.90;99.90
42141;DHT22;27809;51.864;5.646;2023-07-20T00:03:39;16.00;99.90
42141;DHT22;27809;51.864;5.646;2023-07-20T00:06:04;16.00;99.90
42141;DHT22;27809;51.864;5.646;2023-07-20T00:08:30;16.00;99.90
42141;DHT22;27809;51.864;5.646;2023-07-20T00:10:56;16.00;99.90
42141;DHT22;27809;51.864;5.646;2023-07-20T00:13:22;16.00;99.90
42141;DHT22;27809;51.864;5.646;2023-07-20T00:15:47;16.00;99.90
42141;DHT22;27809;51.864;5.646;2023-07-20T00:18:13;16.00;99.90
42141;DHT22;27809;51.864;5.646;2023-07-20T00:20:39;15.80;99.90
42141;DHT22;27809;51.864;5.646;2023-07-20T00:23:05;15.80;99.90
42141;DHT22;27809;51.864;5.646;2023-07-20T00:25:30;15.90;99.90
42141;DHT22;27809;51.864;5.646;2023-07-20T00:27:56;15.80;99.90
42141;DHT22;27809;51.864;5.646;2023-07-20T00:30:21;15.90;99.90
42141;DHT22;27809;51.864;5.646;2023-07-20T00:32:47;15.80;99.90
42141;DHT22;27809;51.864;5.646;2023-07-20T00:35:13;15.70;99.90
42141;DHT22;27809;51.864;5.646;2023-07-20T00:37:39;15.70;99.90
42141;DHT22;27809;51.864;5.646;2023-07-20T00:40:06;15.70;99.90
42141;DHT22;27809;51.864;5.646;2023-07-20T00:42:33;15.80;99.90
42141;DHT22;27809;51.864;5.646;2023-07-20T00:44:58;15.70;99.90
42141;DHT22;27809;51.864;5.646;2023-07-20T00:47:24;15.70;99.90
42141;DHT22;27809;51.864;5.646;2023-07-20T00:49:51;15.70;99.90
42141;DHT22;27809;51.864;5.646;2023-07-20T00:52:19;15.70;99.90
42141;DHT22;27809;51.864;5.646;2023-07-20T00:54:45;15.70;99.90
42141;DHT22;27809;51.864;5.646;2023-07-20T00:57:14;15.70;99.90
42141;DHT22;27809;51.864;5.646;2023-07-20T00:59:40;15.60;99.90
42141;DHT22;27809;51.864;5.646;2023-07-20T01:02:05;15.70;99.90
42141;DHT22;27809;51.864;5.646;2023-07-20T01:04:31;15.60;99.90
42141;DHT22;27809;51.864;5.646;2023-07-20T01:07:03;15.60;99.90
42141;DHT22;27809;51.864;5.646;2023-07-20T01:09:34;15.60;99.90
42141;DHT22;27809;51.864;5.646;2023-07-20T01:12:07;15.50;99.90
42141;DHT22;27809;51.864;5.646;2023-07-20T01:14:34;15.60;99.90
42141;DHT22;27809;51.864;5.646;2023-07-20T01:17:01;15.60;99.90
42141;DHT22;27809;51.864;5.646;2023-07-20T01:19:26;15.60;99.90
42141;DHT22;27809;51.864;5.646;2023-07-20T01:22:09;15.60;99.90
42141;DHT22;27809;51.864;5.646;2023-07-20T01:30:41;15.50;99.90
42141;DHT22;27809;51.864;5.646;2023-07-20T01:33:09;15.60;99.90
42141;DHT22;27809;51.864;5.646;2023-07-20T01:35:38;15.60;99.90
42141;DHT22;27809;51.864;5.646;2023-07-20T01:38:07;15.60;99.90
42141;DHT22;27809;51.864;5.646;2023-07-20T01:40:34;15.60;99.90
42141;DHT22;27809;51.864;5.646;2023-07-20T01:43:00;15.60;99.90
42141;DHT22;27809;51.864;5.646;2023-07-20T01:45:25;15.60;99.90
42141;DHT22;27809;51.864;5.646;2023-07-20T01:47:52;15.50;99.90
42141;DHT22;27809;51.864;5.646;2023-07-20T01:50:17;15.50;99.90
42141;DHT22;27809;51.864;5.646;2023-07-20T01:52:43;15.50;99.90
42141;DHT22;27809;51.864;5.646;2023-07-20T01:55:09;15.50;99.90
42141;DHT22;27809;51.864;5.646;2023-07-20T01:57:34;15.40;99.90
42141;DHT22;27809;51.864;5.646;2023-07-20T02:00:00;15.30;99.90
42141;DHT22;27809;51.864;5.646;2023-07-20T02:02:27;15.20;99.90
42141;DHT22;27809;51.864;5.646;2023-07-20T02:04:53;15.20;99.90
42141;DHT22;27809;51.864;5.646;2023-07-20T02:07:19;15.10;99.90
42141;DHT22;27809;51.864;5.646;2023-07-20T02:09:44;15.10;99.90
42141;DHT22;27809;51.864;5.646;2023-07-20T02:12:10;15.00;99.90
42141;DHT22;27809;51.864;5.646;2023-07-20T02:14:35;15.10;99.90
42141;DHT22;27809;51.864;5.646;2023-07-20T02:17:01;15.00;99.90
42141;DHT22;27809;51.864;5.646;2023-07-20T02:19:26;15.00;99.90
42141;DHT22;27809;51.864;5.646;2023-07-20T02:21:52;15.00;99.90
42141;DHT22;27809;51.864;5.646;2023-07-20T02:24:18;14.90;99.90
42141;DHT22;27809;51.864;5.646;2023-07-20T02:26:44;14.90;99.90
42141;DHT22;27809;51.864;5.646;2023-07-20T02:29:10;14.90;99.90
42141;DHT22;27809;51.864;5.646;2023-07-20T02:31:37;14.80;99.90
42141;DHT22;27809;51.864;5.646;2023-07-20T02:34:05;14.70;99.90
42141;DHT22;27809;51.864;5.646;2023-07-20T02:36:30;14.60;99.90
42141;DHT22;27809;51.864;5.646;2023-07-20T02:38:58;14.60;99.90
42141;DHT22;27809;51.864;5.646;2023-07-20T02:41:24;14.50;99.90
42141;DHT22;27809;51.864;5.646;2023-07-20T02:43:49;14.40;99.90
42141;DHT22;27809;51.864;5.646;2023-07-20T02:46:15;14.40;99.90
42141;DHT22;27809;51.864;5.646;2023-07-20T02:48:40;14.30;99.90
42141;DHT22;27809;51.864;5.646;2023-07-20T02:51:06;14.30;99.90
42141;DHT22;27809;51.864;5.646;2023-07-20T02:53:33;14.30;99.90
42141;DHT22;27809;51.864;5.646;2023-07-20T02:55:58;14.10;99.90
42141;DHT22;27809;51.864;5.646;2023-07-20T02:58:24;14.10;99.90
42141;DHT22;27809;51.864;5.646;2023-07-20T03:00:50;14.10;99.90
42141;DHT22;27809;51.864;5.646;2023-07-20T03:03:15;14.00;99.90
42141;DHT22;27809;51.864;5.646;2023-07-20T03:05:41;14.10;99.90
42141;DHT22;27809;51.864;5.646;2023-07-20T03:08:07;14.00;99.90
42141;DHT22;27809;51.864;5.646;2023-07-20T03:10:33;14.00;99.90
42141;DHT22;27809;51.864;5.646;2023-07-20T03:12:58;14.00;99.90
42141;DHT22;27809;51.864;5.646;2023-07-20T03:15:24;14.00;99.90
42141;DHT22;27809;51.864;5.646;2023-07-20T03:17:50;14.00;99.90
42141;DHT22;27809;51.864;5.646;2023-07-20T03:20:17;14.00;99.90
42141;DHT22;27809;51.864;5.646;2023-07-20T03:22:42;14.00;99.90
42141;DHT22;27809;51.864;5.646;2023-07-20T03:25:08;14.10;99.90
42141;DHT22;27809;51.864;5.646;2023-07-20T03:27:33;14.10;99.90
42141;DHT22;27809;51.864;5.646;2023-07-20T03:29:59;14.10;99.90
42141;DHT22;27809;51.864;5.646;2023-07-20T03:32:24;14.10;99.90
42141;DHT22;27809;51.864;5.646;2023-07-20T03:34:50;14.10;99.90
42141;DHT22;27809;51.864;5.646;2023-07-20T03:37:15;14.10;99.90
42141;DHT22;27809;51.864;5.646;2023-07-20T03:39:41;14.00;99.90
42141;DHT22;27809;51.864;5.646;2023-07-20T03:42:07;13.90;99.90
42141;DHT22;27809;51.864;5.646;2023-07-20T03:44:33;13.90;99.90
42141;DHT22;27809;51.864;5.646;2023-07-20T03:46:58;13.90;99.90
42141;DHT22;27809;51.864;5.646;2023-07-20T03:49:24;13.80;99.90
42141;DHT22;27809;51.864;5.646;2023-07-20T03:51:49;13.80;99.90
42141;DHT22;27809;51.864;5.646;2023-07-20T03:54:15;13.90;99.90
42141;DHT22;27809;51.864;5.646;2023-07-20T03:56:40;14.00;99.90
42141;DHT22;27809;51.864;5.646;2023-07-20T03:59:06;13.80;99.90
42141;DHT22;27809;51.864;5.646;2023-07-20T04:01:31;14.00;99.90
42141;DHT22;27809;51.864;5.646;2023-07-20T04:04:04;14.00;99.90
42141;DHT22;27809;51.864;5.646;2023-07-20T04:06:29;13.90;99.90
42141;DHT22;27809;51.864;5.646;2023-07-20T04:08:55;14.00;99.90
42141;DHT22;27809;51.864;5.646;2023-07-20T04:11:21;14.00;99.90
42141;DHT22;27809;51.864;5.646;2023-07-20T04:13:46;14.00;99.90
42141;DHT22;27809;51.864;5.646;2023-07-20T04:16:12;14.00;99.90
42141;DHT22;27809;51.864;5.646;2023-07-20T04:18:37;14.00;99.90
42141;DHT22;27809;51.864;5.646;2023-07-20T04:21:03;14.00;99.90
42141;DHT22;27809;51.864;5.646;2023-07-20T04:23:28;14.00;99.90
42141;DHT22;27809;51.864;5.646;2023-07-20T04:25:53;14.00;99.90
42141;DHT22;27809;51.864;5.646;2023-07-20T04:28:19;14.10;99.90
42141;DHT22;27809;51.864;5.646;2023-07-20T04:30:48;14.10;99.90
42141;DHT22;27809;51.864;5.646;2023-07-20T04:33:14;13.90;99.90
42141;DHT22;27809;51.864;5.646;2023-07-20T04:35:53;14.00;99.90
42141;DHT22;27809;51.864;5.646;2023-07-20T04:38:19;14.00;99.90
42141;DHT22;27809;51.864;5.646;2023-07-20T04:40:45;14.00;99.90
42141;DHT22;27809;51.864;5.646;2023-07-20T04:43:11;14.00;99.90
42141;DHT22;27809;51.864;5.646;2023-07-20T04:45:37;14.10;99.90
42141;DHT22;27809;51.864;5.646;2023-07-20T04:48:04;14.20;99.90
42141;DHT22;27809;51.864;5.646;2023-07-20T04:50:29;14.10;99.90
42141;DHT22;27809;51.864;5.646;2023-07-20T04:52:55;14.10;99.90
42141;DHT22;27809;51.864;5.646;2023-07-20T04:55:21;14.00;99.90
42141;DHT22;27809;51.864;5.646;2023-07-20T04:57:46;14.00;99.90
42141;DHT22;27809;51.864;5.646;2023-07-20T05:00:12;14.10;99.90
42141;DHT22;27809;51.864;5.646;2023-07-20T05:02:38;14.10;99.90
42141;DHT22;27809;51.864;5.646;2023-07-20T05:05:04;14.10;99.90
42141;DHT22;27809;51.864;5.646;2023-07-20T05:07:31;14.10;99.90
42141;DHT22;27809;51.864;5.646;2023-07-20T05:09:57;14.20;99.90
42141;DHT22;27809;51.864;5.646;2023-07-20T05:12:23;14.20;99.90
42141;DHT22;27809;51.864;5.646;2023-07-20T05:14:48;14.30;99.90
42141;DHT22;27809;51.864;5.646;2023-07-20T05:17:14;14.30;99.90
42141;DHT22;27809;51.864;5.646;2023-07-20T05:19:39;14.30;99.90
42141;DHT22;27809;51.864;5.646;2023-07-20T05:22:05;14.30;99.90
42141;DHT22;27809;51.864;5.646;2023-07-20T05:24:31;14.30;99.90
42141;DHT22;27809;51.864;5.646;2023-07-20T05:26:57;14.40;99.90
42141;DHT22;27809;51.864;5.646;2023-07-20T05:29:23;14.40;99.90
42141;DHT22;27809;51.864;5.646;2023-07-20T05:31:49;14.40;99.90
42141;DHT22;27809;51.864;5.646;2023-07-20T05:34:14;14.50;99.90
42141;DHT22;27809;51.864;5.646;2023-07-20T05:36:40;14.60;99.90
42141;DHT22;27809;51.864;5.646;2023-07-20T05:39:06;14.80;99.90
42141;DHT22;27809;51.864;5.646;2023-07-20T05:41:31;14.90;99.90
42141;DHT22;27809;51.864;5.646;2023-07-20T05:43:57;15.00;99.90
42141;DHT22;27809;51.864;5.646;2023-07-20T05:46:22;15.10;99.90
42141;DHT22;27809;51.864;5.646;2023-07-20T05:48:49;15.30;99.90
42141;DHT22;27809;51.864;5.646;2023-07-20T05:51:15;15.40;99.90
42141;DHT22;27809;51.864;5.646;2023-07-20T05:53:41;15.40;99.90
42141;DHT22;27809;51.864;5.646;2023-07-20T05:56:06;15.40;99.90
42141;DHT22;27809;51.864;5.646;2023-07-20T05:58:35;15.40;99.90
42141;DHT22;27809;51.864;5.646;2023-07-20T06:01:01;15.50;99.90
42141;DHT22;27809;51.864;5.646;2023-07-20T06:03:27;15.70;99.90
42141;DHT22;27809;51.864;5.646;2023-07-20T06:05:59;15.90;99.90
42141;DHT22;27809;51.864;5.646;2023-07-20T06:08:24;16.10;99.90
42141;DHT22;27809;51.864;5.646;2023-07-20T06:10:50;16.00;99.90
42141;DHT22;27809;51.864;5.646;2023-07-20T06:13:17;16.20;99.90
42141;DHT22;27809;51.864;5.646;2023-07-20T06:15:42;16.50;99.90
42141;DHT22;27809;51.864;5.646;2023-07-20T06:18:09;16.60;99.90
42141;DHT22;27809;51.864;5.646;2023-07-20T06:20:34;16.80;99.90
42141;DHT22;27809;51.864;5.646;2023-07-20T06:23:00;16.80;99.90
42141;DHT22;27809;51.864;5.646;2023-07-20T06:25:25;16.80;99.90
42141;DHT22;27809;51.864;5.646;2023-07-20T06:27:51;16.80;99.90
42141;DHT22;27809;51.864;5.646;2023-07-20T06:30:17;16.80;99.90
42141;DHT22;27809;51.864;5.646;2023-07-20T06:32:43;16.70;99.90
42141;DHT22;27809;51.864;5.646;2023-07-20T06:35:08;16.80;99.90
42141;DHT22;27809;51.864;5.646;2023-07-20T06:37:35;16.90;99.90
42141;DHT22;27809;51.864;5.646;2023-07-20T06:40:01;17.10;99.90
42141;DHT22;27809;51.864;5.646;2023-07-20T06:42:27;16.90;99.90
42141;DHT22;27809;51.864;5.646;2023-07-20T06:44:53;17.10;99.90
42141;DHT22;27809;51.864;5.646;2023-07-20T06:47:18;17.30;99.90
42141;DHT22;27809;51.864;5.646;2023-07-20T06:49:44;17.10;99.90
42141;DHT22;27809;51.864;5.646;2023-07-20T06:52:09;16.80;99.90
42141;DHT22;27809;51.864;5.646;2023-07-20T06:54:35;16.60;99.90
42141;DHT22;27809;51.864;5.646;2023-07-20T06:57:00;16.50;99.90
42141;DHT22;27809;51.864;5.646;2023-07-20T06:59:26;16.40;99.90
42141;DHT22;27809;51.864;5.646;2023-07-20T07:01:51;16.30;99.90
42141;DHT22;27809;51.864;5.646;2023-07-20T07:04:17;16.30;99.90
42141;DHT22;27809;51.864;5.646;2023-07-20T07:06:42;16.20;99.90
42141;DHT22;27809;51.864;5.646;2023-07-20T07:09:08;16.10;99.90
42141;DHT22;27809;51.864;5.646;2023-07-20T07:11:34;16.30;99.90
42141;DHT22;27809;51.864;5.646;2023-07-20T07:13:59;16.50;99.90
42141;DHT22;27809;51.864;5.646;2023-07-20T07:16:25;16.90;99.90
42141;DHT22;27809;51.864;5.646;2023-07-20T07:18:51;16.90;99.90
42141;DHT22;27809;51.864;5.646;2023-07-20T07:21:16;17.20;99.90
42141;DHT22;27809;51.864;5.646;2023-07-20T07:23:43;17.10;99.90
42141;DHT22;27809;51.864;5.646;2023-07-20T07:26:09;17.40;99.90
42141;DHT22;27809;51.864;5.646;2023-07-20T07:28:34;17.70;99.90
42141;DHT22;27809;51.864;5.646;2023-07-20T07:31:00;17.90;93.30
42141;DHT22;27809;51.864;5.646;2023-07-20T07:33:26;18.10;91.50
42141;DHT22;27809;51.864;5.646;2023-07-20T07:35:52;18.40;91.20
42141;DHT22;27809;51.864;5.646;2023-07-20T07:38:18;18.30;77.50
42141;DHT22;27809;51.864;5.646;2023-07-20T07:40:44;18.30;77.20
42141;DHT22;27809;51.864;5.646;2023-07-20T07:43:09;21.00;40.40
42141;DHT22;27809;51.864;5.646;2023-07-20T07:45:35;22.40;13.70
42141;DHT22;27809;51.864;5.646;2023-07-20T07:48:05;22.40;5.70
42141;DHT22;27809;51.864;5.646;2023-07-20T07:50:31;22.90;1.00
42141;DHT22;27809;51.864;5.646;2023-07-20T07:52:57;22.80;1.00
42141;DHT22;27809;51.864;5.646;2023-07-20T07:55:22;22.60;1.00
42141;DHT22;27809;51.864;5.646;2023-07-20T07:57:49;23.10;1.00
42141;DHT22;27809;51.864;5.646;2023-07-20T08:00:15;23.40;1.00
42141;DHT22;27809;51.864;5.646;2023-07-20T08:02:44;23.10;1.00
42141;DHT22;27809;51.864;5.646;2023-07-20T08:05:11;23.00;1.00
42141;DHT22;27809;51.864;5.646;2023-07-20T08:07:36;22.90;1.00
42141;DHT22;27809;51.864;5.646;2023-07-20T08:10:03;22.90;1.00
42141;DHT22;27809;51.864;5.646;2023-07-20T08:12:29;22.10;1.00
42141;DHT22;27809;51.864;5.646;2023-07-20T08:14:54;23.10;1.00
42141;DHT22;27809;51.864;5.646;2023-07-20T08:17:20;22.60;1.00
42141;DHT22;27809;51.864;5.646;2023-07-20T08:19:46;22.90;1.00
42141;DHT22;27809;51.864;5.646;2023-07-20T08:22:11;22.90;1.00
42141;DHT22;27809;51.864;5.646;2023-07-20T08:24:40;23.00;1.00
42141;DHT22;27809;51.864;5.646;2023-07-20T08:27:07;22.60;1.00
42141;DHT22;27809;51.864;5.646;2023-07-20T08:29:33;22.90;1.00
42141;DHT22;27809;51.864;5.646;2023-07-20T08:31:58;22.90;1.00
42141;DHT22;27809;51.864;5.646;2023-07-20T08:34:24;23.50;1.00
42141;DHT22;27809;51.864;5.646;2023-07-20T08:36:49;23.50;1.00
42141;DHT22;27809;51.864;5.646;2023-07-20T08:39:15;23.90;1.00
42141;DHT22;27809;51.864;5.646;2023-07-20T08:41:42;24.20;1.00
42141;DHT22;27809;51.864;5.646;2023-07-20T08:44:09;24.30;1.00
42141;DHT22;27809;51.864;5.646;2023-07-20T08:46:38;24.10;1.00
42141;DHT22;27809;51.864;5.646;2023-07-20T08:49:04;24.20;1.00
42141;DHT22;27809;51.864;5.646;2023-07-20T08:51:30;23.70;1.00
42141;DHT22;27809;51.864;5.646;2023-07-20T08:53:57;23.50;1.00
42141;DHT22;27809;51.864;5.646;2023-07-20T08:56:25;23.50;1.00
42141;DHT22;27809;51.864;5.646;2023-07-20T08:58:53;23.60;1.00
42141;DHT22;27809;51.864;5.646;2023-07-20T09:01:19;23.60;1.00
42141;DHT22;27809;51.864;5.646;2023-07-20T09:03:45;23.60;1.00
42141;DHT22;27809;51.864;5.646;2023-07-20T09:06:12;23.20;1.00
42141;DHT22;27809;51.864;5.646;2023-07-20T09:08:39;23.20;1.00
42141;DHT22;27809;51.864;5.646;2023-07-20T09:11:05;23.20;1.00
42141;DHT22;27809;51.864;5.646;2023-07-20T09:13:32;23.20;1.00
42141;DHT22;27809;51.864;5.646;2023-07-20T09:15:58;23.20;1.00
42141;DHT22;27809;51.864;5.646;2023-07-20T09:18:30;23.00;1.00
42141;DHT22;27809;51.864;5.646;2023-07-20T09:21:02;23.30;1.00
42141;DHT22;27809;51.864;5.646;2023-07-20T09:23:35;23.20;1.00
42141;DHT22;27809;51.864;5.646;2023-07-20T09:26:09;23.20;1.00
42141;DHT22;27809;51.864;5.646;2023-07-20T09:28:47;23.30;1.00
42141;DHT22;27809;51.864;5.646;2023-07-20T09:31:21;23.00;1.00
42141;DHT22;27809;51.864;5.646;2023-07-20T09:33:47;22.60;1.00
42141;DHT22;27809;51.864;5.646;2023-07-20T09:36:13;23.00;1.00
42141;DHT22;27809;51.864;5.646;2023-07-20T09:38:42;22.90;1.00
42141;DHT22;27809;51.864;5.646;2023-07-20T09:41:12;23.00;1.00
42141;DHT22;27809;51.864;5.646;2023-07-20T09:43:39;23.30;1.00
42141;DHT22;27809;51.864;5.646;2023-07-20T09:46:05;23.10;1.00
42141;DHT22;27809;51.864;5.646;2023-07-20T09:48:30;23.20;1.00
42141;DHT22;27809;51.864;5.646;2023-07-20T09:50:56;23.50;1.00
42141;DHT22;27809;51.864;5.646;2023-07-20T09:53:24;24.30;1.00
42141;DHT22;27809;51.864;5.646;2023-07-20T09:55:52;24.40;1.00
42141;DHT22;27809;51.864;5.646;2023-07-20T09:58:18;24.50;1.00
42141;DHT22;27809;51.864;5.646;2023-07-20T10:00:45;24.40;1.00
42141;DHT22;27809;51.864;5.646;2023-07-20T10:03:18;24.80;1.00
42141;DHT22;27809;51.864;5.646;2023-07-20T10:05:48;24.40;1.00
42141;DHT22;27809;51.864;5.646;2023-07-20T10:08:16;23.90;1.00
42141;DHT22;27809;51.864;5.646;2023-07-20T10:10:44;24.10;1.00
42141;DHT22;27809;51.864;5.646;2023-07-20T10:13:24;23.70;1.00
42141;DHT22;27809;51.864;5.646;2023-07-20T10:15:54;23.80;1.00
42141;DHT22;27809;51.864;5.646;2023-07-20T10:21:06;23.60;1.00
42141;DHT22;27809;51.864;5.646;2023-07-20T10:23:34;23.50;1.00
42141;DHT22;27809;51.864;5.646;2023-07-20T10:26:01;23.30;1.00
42141;DHT22;27809;51.864;5.646;2023-07-20T10:28:27;23.30;1.00
42141;DHT22;27809;51.864;5.646;2023-07-20T10:30:53;23.30;1.00
42141;DHT22;27809;51.864;5.646;2023-07-20T10:33:19;23.50;1.00
42141;DHT22;27809;51.864;5.646;2023-07-20T10:36:11;23.30;1.00
42141;DHT22;27809;51.864;5.646;2023-07-20T10:41:35;22.90;1.00
42141;DHT22;27809;51.864;5.646;2023-07-20T10:44:02;22.80;1.00
42141;DHT22;27809;51.864;5.646;2023-07-20T10:46:43;22.60;1.00
42141;DHT22;27809;51.864;5.646;2023-07-20T10:49:10;22.60;1.00
42141;DHT22;27809;51.864;5.646;2023-07-20T10:51:46;22.90;1.00
42141;DHT22;27809;51.864;5.646;2023-07-20T10:56:41;23.00;1.00
42141;DHT22;27809;51.864;5.646;2023-07-20T10:59:35;22.90;1.00
42141;DHT22;27809;51.864;5.646;2023-07-20T11:02:06;23.50;1.00
42141;DHT22;27809;51.864;5.646;2023-07-20T11:04:38;23.40;1.00
42141;DHT22;27809;51.864;5.646;2023-07-20T11:07:05;23.40;1.00
42141;DHT22;27809;51.864;5.646;2023-07-20T11:09:35;22.50;1.00
42141;DHT22;27809;51.864;5.646;2023-07-20T11:12:12;22.60;1.00
42141;DHT22;27809;51.864;5.646;2023-07-20T11:14:52;22.90;1.00
42141;DHT22;27809;51.864;5.646;2023-07-20T11:17:19;23.10;1.00
42141;DHT22;27809;51.864;5.646;2023-07-20T11:19:48;23.20;1.00
42141;DHT22;27809;51.864;5.646;2023-07-20T11:22:17;22.50;1.00
42141;DHT22;27809;51.864;5.646;2023-07-20T11:24:43;22.80;1.00
42141;DHT22;27809;51.864;5.646;2023-07-20T11:27:08;23.00;1.00
42141;DHT22;27809;51.864;5.646;2023-07-20T11:29:35;23.00;1.00
42141;DHT22;27809;51.864;5.646;2023-07-20T11:32:02;22.70;1.00
42141;DHT22;27809;51.864;5.646;2023-07-20T11:34:30;22.90;1.00
42141;DHT22;27809;51.864;5.646;2023-07-20T11:36:56;23.00;1.00
42141;DHT22;27809;51.864;5.646;2023-07-20T11:39:22;23.10;1.00
42141;DHT22;27809;51.864;5.646;2023-07-20T11:41:53;23.00;1.00
42141;DHT22;27809;51.864;5.646;2023-07-20T11:44:21;23.00;1.00
42141;DHT22;27809;51.864;5.646;2023-07-20T11:47:03;22.70;1.00
42141;DHT22;27809;51.864;5.646;2023-07-20T11:49:40;22.90;1.00
42141;DHT22;27809;51.864;5.646;2023-07-20T11:52:10;23.10;1.00
42141;DHT22;27809;51.864;5.646;2023-07-20T11:54:37;23.00;1.00
42141;DHT22;27809;51.864;5.646;2023-07-20T11:57:04;22.80;1.00
42141;DHT22;27809;51.864;5.646;2023-07-20T11:59:31;23.00;1.00
42141;DHT22;27809;51.864;5.646;2023-07-20T12:01:57;23.50;1.00
42141;DHT22;27809;51.864;5.646;2023-07-20T12:04:23;23.80;1.00
42141;DHT22;27809;51.864;5.646;2023-07-20T12:06:49;23.50;1.00
42141;DHT22;27809;51.864;5.646;2023-07-20T12:09:16;23.00;1.00
42141;DHT22;27809;51.864;5.646;2023-07-20T12:11:43;22.40;1.00
42141;DHT22;27809;51.864;5.646;2023-07-20T12:14:10;22.90;1.00
42141;DHT22;27809;51.864;5.646;2023-07-20T12:16:37;23.10;1.00
42141;DHT22;27809;51.864;5.646;2023-07-20T12:19:08;23.10;1.00
42141;DHT22;27809;51.864;5.646;2023-07-20T12:21:35;23.10;1.00
42141;DHT22;27809;51.864;5.646;2023-07-20T12:24:02;22.60;1.00
42141;DHT22;27809;51.864;5.646;2023-07-20T12:26:29;22.90;1.00
42141;DHT22;27809;51.864;5.646;2023-07-20T12:28:55;23.20;1.00
42141;DHT22;27809;51.864;5.646;2023-07-20T12:31:22;23.00;1.00
42141;DHT22;27809;51.864;5.646;2023-07-20T12:33:49;22.60;1.00
42141;DHT22;27809;51.864;5.646;2023-07-20T12:36:15;23.00;1.00
42141;DHT22;27809;51.864;5.646;2023-07-20T12:38:40;23.40;1.00
42141;DHT22;27809;51.864;5.646;2023-07-20T12:41:07;23.30;1.00
42141;DHT22;27809;51.864;5.646;2023-07-20T12:43:33;23.50;1.00
42141;DHT22;27809;51.864;5.646;2023-07-20T12:45:59;23.30;1.00
42141;DHT22;27809;51.864;5.646;2023-07-20T12:48:25;23.30;1.00
42141;DHT22;27809;51.864;5.646;2023-07-20T12:50:50;23.40;1.00
42141;DHT22;27809;51.864;5.646;2023-07-20T12:53:16;23.10;1.00
42141;DHT22;27809;51.864;5.646;2023-07-20T12:55:42;22.90;1.00
42141;DHT22;27809;51.864;5.646;2023-07-20T12:58:08;23.00;1.00
42141;DHT22;27809;51.864;5.646;2023-07-20T13:00:33;23.40;1.00
42141;DHT22;27809;51.864;5.646;2023-07-20T13:02:59;23.40;1.00
42141;DHT22;27809;51.864;5.646;2023-07-20T13:05:25;23.30;1.00
42141;DHT22;27809;51.864;5.646;2023-07-20T13:07:50;23.70;1.00
42141;DHT22;27809;51.864;5.646;2023-07-20T13:10:16;23.60;1.00
42141;DHT22;27809;51.864;5.646;2023-07-20T13:12:42;23.30;1.00
42141;DHT22;27809;51.864;5.646;2023-07-20T13:15:09;23.20;1.00
42141;DHT22;27809;51.864;5.646;2023-07-20T13:17:36;23.40;1.00
42141;DHT22;27809;51.864;5.646;2023-07-20T13:20:03;23.70;1.00
42141;DHT22;27809;51.864;5.646;2023-07-20T13:22:30;23.40;1.00
42141;DHT22;27809;51.864;5.646;2023-07-20T13:24:55;23.60;1.00
42141;DHT22;27809;51.864;5.646;2023-07-20T13:27:21;23.70;1.00
42141;DHT22;27809;51.864;5.646;2023-07-20T13:29:47;23.60;1.00
42141;DHT22;27809;51.864;5.646;2023-07-20T13:32:16;23.20;1.00
42141;DHT22;27809;51.864;5.646;2023-07-20T13:34:41;23.20;1.00
42141;DHT22;27809;51.864;5.646;2023-07-20T13:37:08;23.30;1.00
42141;DHT22;27809;51.864;5.646;2023-07-20T13:39:34;23.90;1.00
42141;DHT22;27809;51.864;5.646;2023-07-20T13:42:00;23.70;1.00
42141;DHT22;27809;51.864;5.646;2023-07-20T13:44:27;23.50;1.00
42141;DHT22;27809;51.864;5.646;2023-07-20T13:46:53;23.40;1.00
42141;DHT22;27809;51.864;5.646;2023-07-20T13:49:18;23.80;1.00
42141;DHT22;27809;51.864;5.646;2023-07-20T13:51:44;24.00;1.00
42141;DHT22;27809;51.864;5.646;2023-07-20T13:54:09;23.70;1.00
42141;DHT22;27809;51.864;5.646;2023-07-20T13:56:35;23.80;1.00
42141;DHT22;27809;51.864;5.646;2023-07-20T13:59:01;23.50;1.00
42141;DHT22;27809;51.864;5.646;2023-07-20T14:01:27;23.30;1.00
42141;DHT22;27809;51.864;5.646;2023-07-20T14:03:54;23.50;1.00
42141;DHT22;27809;51.864;5.646;2023-07-20T14:06:19;24.20;1.00
42141;DHT22;27809;51.864;5.646;2023-07-20T14:08:45;24.20;1.00
42141;DHT22;27809;51.864;5.646;2023-07-20T14:11:12;23.90;1.00
42141;DHT22;27809;51.864;5.646;2023-07-20T14:13:38;23.50;1.00
42141;DHT22;27809;51.864;5.646;2023-07-20T14:16:04;23.80;1.00
42141;DHT22;27809;51.864;5.646;2023-07-20T14:18:29;23.90;1.00
42141;DHT22;27809;51.864;5.646;2023-07-20T14:20:55;23.80;1.00
42141;DHT22;27809;51.864;5.646;2023-07-20T14:23:20;23.50;1.00
42141;DHT22;27809;51.864;5.646;2023-07-20T14:25:46;23.70;1.00
42141;DHT22;27809;51.864;5.646;2023-07-20T14:28:11;23.70;1.00
42141;DHT22;27809;51.864;5.646;2023-07-20T14:30:38;23.50;1.00
42141;DHT22;27809;51.864;5.646;2023-07-20T14:33:03;23.80;1.00
42141;DHT22;27809;51.864;5.646;2023-07-20T14:35:29;23.60;1.00
42141;DHT22;27809;51.864;5.646;2023-07-20T14:37:54;23.90;1.00
42141;DHT22;27809;51.864;5.646;2023-07-20T14:40:20;24.10;1.00
42141;DHT22;27809;51.864;5.646;2023-07-20T14:42:46;23.60;1.00
42141;DHT22;27809;51.864;5.646;2023-07-20T14:45:11;23.90;1.00
42141;DHT22;27809;51.864;5.646;2023-07-20T14:47:37;23.70;1.00
42141;DHT22;27809;51.864;5.646;2023-07-20T14:50:03;23.90;1.00
42141;DHT22;27809;51.864;5.646;2023-07-20T14:52:29;24.40;1.00
42141;DHT22;27809;51.864;5.646;2023-07-20T14:54:54;24.70;1.00
42141;DHT22;27809;51.864;5.646;2023-07-20T14:57:20;24.30;1.00
42141;DHT22;27809;51.864;5.646;2023-07-20T14:59:48;24.10;1.00
42141;DHT22;27809;51.864;5.646;2023-07-20T15:02:14;24.00;1.00
42141;DHT22;27809;51.864;5.646;2023-07-20T15:04:46;23.90;1.00
42141;DHT22;27809;51.864;5.646;2023-07-20T15:07:11;23.50;1.00
42141;DHT22;27809;51.864;5.646;2023-07-20T15:09:37;23.70;1.00
42141;DHT22;27809;51.864;5.646;2023-07-20T15:12:02;23.70;1.00
42141;DHT22;27809;51.864;5.646;2023-07-20T15:14:28;23.70;1.00
42141;DHT22;27809;51.864;5.646;2023-07-20T15:16:53;23.60;1.00
42141;DHT22;27809;51.864;5.646;2023-07-20T15:19:19;23.50;1.00
42141;DHT22;27809;51.864;5.646;2023-07-20T15:21:44;23.20;1.00
42141;DHT22;27809;51.864;5.646;2023-07-20T15:24:10;23.20;1.00
42141;DHT22;27809;51.864;5.646;2023-07-20T15:26:35;23.40;1.00
42141;DHT22;27809;51.864;5.646;2023-07-20T15:29:01;23.20;1.00
42141;DHT22;27809;51.864;5.646;2023-07-20T15:31:26;23.80;1.00
42141;DHT22;27809;51.864;5.646;2023-07-20T15:33:53;23.60;1.00
42141;DHT22;27809;51.864;5.646;2023-07-20T15:36:18;23.40;1.00
42141;DHT22;27809;51.864;5.646;2023-07-20T15:38:44;23.60;1.00
42141;DHT22;27809;51.864;5.646;2023-07-20T15:41:09;23.20;1.00
42141;DHT22;27809;51.864;5.646;2023-07-20T15:43:35;23.50;1.00
42141;DHT22;27809;51.864;5.646;2023-07-20T15:48:48;23.60;1.00
42141;DHT22;27809;51.864;5.646;2023-07-20T15:51:13;23.90;1.00